Werte bis 5 Uhr SommerzeitDiagramme Harleshausen: Tagesdaten MonatsdatenCSV-Datei: Harleshausen20.csv

Wetterdaten 2020 Station: Harleshausen
Temperaturen in °C relative Nieder- Global- Wind Wind Wind- Sonnen-
Datum Boden Boden Luft Luft Luft Luft Feuchte schlag strahlung max richtung schein
20 cm 5 cm 20 cm 2 m 2 m max 2 m min % mm W/m2*d m/s m/s ° h

24.06.2020 19,7 21,2 22,2 20,2 27,2 11,3 55 0,0 5818 0,5 1,6 --- ---
23.06.2020 19,2 20,7 21,5 19,4 27,4 9,9 58 0,0 6065 0,3 1,6 --- ---
22.06.2020 19,3 20,3 19,1 18,3 24,9 12,4 66 0,0 2940 0,3 1,7 --- ---
21.06.2020 19,0 20,3 20,7 18,9 26,7 9,8 60 0,0 4839 0,3 1,5 --- ---
20.06.2020 19,0 20,3 19,7 18,2 23,9 11,9 61 0,0 4334 0,6 2,7 --- ---
19.06.2020 18,5 19,7 19,9 18,5 25,4 12,7 66 0,1 4331 0,4 2,6 --- ---
18.06.2020 18,7 16,8 16,6 16,0 18,5 12,7 87 2,7 1409 0,3 1,5 --- ---
17.06.2020 18,4 19,4 19,9 18,4 26,2 12,0 75 3,4 3884 0,3 1,6 --- ---
16.06.2020 18,1 19,0 18,8 17,6 22,6 13,1 74 0,0 3246 0,2 1,8 --- ---
15.06.2020 18,1 18,5 16,8 16,0 18,4 14,1 87 18,4 1667 0,4 2,0 --- ---
14.06.2020 18,3 19,5 19,6 18,8 23,5 15,7 84 19,4 1805 0,2 1,2 --- ---
13.06.2020 17,8 19,6 22,2 21,0 30,5 15,2 70 2,9 4463 0,4 2,8 --- ---
12.06.2020 16,8 18,4 21,3 19,9 27,7 10,5 64 0,0 5309 0,5 1,9 --- ---
11.06.2020 16,4 15,6 16,6 15,5 20,0 12,2 76 0,6 2574 0,2 1,2 --- ---
10.06.2020 16,0 15,8 16,0 15,2 19,8 11,6 76 1,5 2390 0,2 1,3 --- ---
09.06.2020 15,7 15,7 15,6 14,3 21,4 7,3 73 0,9 2906 0,2 0,9 --- ---
08.06.2020 15,8 16,0 14,6 12,8 21,5 7,3 77 8,4 2807 0,2 1,7 --- ---
07.06.2020 15,7 16,1 15,5 13,9 19,2 8,9 58 0,0 3763 0,8 3,3 --- ---
06.06.2020 15,7 15,9 13,7 11,9 17,7 6,8 67 1,4 4694 1,2 4,1 --- ---
05.06.2020 16,3 16,1 11,9 10,8 14,7 7,8 72 4,7 2944 1,2 3,4 --- ---
04.06.2020 16,9 16,9 13,6 12,9 16,1 10,5 91 7,5 837 0,2 1,3 --- ---
03.06.2020 17,3 18,1 18,5 17,2 27,1 10,9 71 8,7 3037 0,3 3,7 --- ---
02.06.2020 16,9 18,3 21,6 19,3 28,0 10,0 53 0,0 5548 0,4 1,8 --- ---
01.06.2020 16,2 17,5 19,2 17,2 26,4 7,9 55 0,0 5959 0,3 1,7 --- ---
31.05.2020 15,9 16,7 16,0 14,4 21,1 7,2 57 0,0 5286 0,4 1,5 --- ---
30.05.2020 15,8 16,5 15,7 14,3 21,3 6,4 52 0,0 4432 0,5 1,7 --- ---
29.05.2020 15,9 16,8 16,5 14,5 21,7 6,7 52 0,0 5820 0,4 1,5 --- ---
28.05.2020 15,9 17,2 16,7 14,4 20,0 8,6 52 0,0 6016 0,5 1,6 --- ---
27.05.2020 15,3 16,4 17,9 15,7 24,4 5,7 58 0,0 4630 0,4 1,6 --- ---
26.05.2020 15,1 15,8 14,9 12,9 21,3 4,6 65 0,0 4606 0,3 1,2 --- ---
25.05.2020 15,0 15,9 14,9 13,9 19,5 7,5 65 0,0 4321 0,6 2,2 --- ---
24.05.2020 15,0 15,0 12,5 11,7 17,3 6,9 74 3,4 2380 0,8 3,1 --- ---
23.05.2020 15,7 16,3 14,0 13,5 17,3 8,4 70 6,8 2364 0,9 2,9 --- ---
22.05.2020 15,6 16,5 18,2 17,4 23,5 9,4 70 6,1 2129 0,6 2,3 --- ---
21.05.2020 15,1 16,7 19,5 16,8 26,2 5,9 57 0,0 5707 0,3 1,8 --- ---
20.05.2020 15,1 16,2 16,0 15,0 18,5 8,5 71 0,0 2530 0,2 1,0 --- ---
19.05.2020 14,5 15,8 17,8 16,3 23,9 8,0 61 10,3 4007 0,3 2,4 --- ---
18.05.2020 13,7 14,9 17,6 15,3 25,7 4,4 60 0,0 5165 0,5 2,9 --- ---
17.05.2020 13,2 14,4 15,7 13,1 20,6 6,4 57 0,0 5666 0,5 2,0 --- ---
16.05.2020 12,4 12,8 13,3 10,7 19,0 0,4 60 0,0 4014 0,4 1,8 --- ---
15.05.2020 12,2 12,6 11,6 8,9 16,7 1,6 60 0,0 5481 0,4 1,8 --- ---
14.05.2020 12,1 12,3 10,2 8,5 14,8 3,8 63 0,0 3629 0,4 1,3 --- ---
13.05.2020 11,9 11,7 10,0 7,8 16,2 -0,2 65 0,0 2799 0,3 1,8 --- ---
12.05.2020 12,2 11,5 7,9 6,1 12,7 -1,0 63 0,0 2818 0,5 2,0 --- ---
11.05.2020 13,5 12,7 6,1 5,6 9,3 2,8 76 1,8 1323 0,7 2,5 --- ---
10.05.2020 14,1 14,7 14,1 13,1 22,2 7,1 79 0,4 1892 0,2 1,3 --- ---
09.05.2020 14,1 15,3 16,8 15,7 22,6 9,2 55 0,0 3677 0,4 1,1 --- ---
08.05.2020 13,4 14,6 16,1 14,2 23,4 5,0 54 0,0 4939 0,2 1,5 --- ---
07.05.2020 12,8 13,6 14,5 11,9 21,7 1,5 54 0,0 5514 0,2 1,4 --- ---
06.05.2020 12,3 12,8 12,4 9,6 17,9 -0,5 60 0,0 5485 0,3 1,6 --- ---
05.05.2020 12,1 12,5 10,8 8,2 14,6 2,3 60 0,0 5476 0,4 1,9 --- ---
04.05.2020 12,4 12,3 9,7 9,2 13,9 4,5 82 3,1 1581 0,0 0,3 --- ---
03.05.2020 12,3 12,6 11,6 10,5 16,1 6,0 74 0,1 2394 0,5 2,1 --- ---
02.05.2020 12,5 12,5 9,4 8,6 11,8 6,6 83 3,7 2488 0,8 3,2 --- ---
01.05.2020 12,9 13,0 10,8 9,9 14,9 6,6 79 4,7 3171 1,0 3,3 --- ---
30.04.2020 13,1 13,6 12,7 12,1 17,4 7,6 74 6,4 2958 1,6 4,1 --- ---
29.04.2020 13,0 13,7 14,6 13,4 19,6 9,3 72 0,7 3182 1,0 3,7 --- ---
28.04.2020 12,7 12,9 13,0 12,2 16,6 4,6 75 0,1 1790 0,6 2,2 --- ---
27.04.2020 12,4 13,1 15,3 13,3 23,5 2,4 57 0,0 4638 0,5 2,9 --- ---
26.04.2020 12,2 12,6 13,7 10,9 20,9 0,6 62 0,0 4804 0,4 1,8 --- ---
25.04.2020 12,4 12,9 12,7 9,9 17,2 3,7 63 0,0 4174 0,6 2,1 --- ---
24.04.2020 12,1 12,9 15,2 13,4 22,3 4,8 56 0,0 4317 0,5 2,7 --- ---
23.04.2020 11,7 12,5 15,4 13,5 22,6 4,4 52 0,0 4758 0,5 1,8 --- ---
22.04.2020 11,4 12,0 14,1 13,1 19,8 5,4 45 0,0 4876 0,9 3,1 --- ---
21.04.2020 11,3 11,6 13,4 12,2 17,5 4,1 44 0,0 4840 1,2 3,3 --- ---
20.04.2020 11,6 11,6 12,1 10,6 16,4 2,1 42 0,0 4910 1,3 3,4 --- ---
19.04.2020 12,0 13,0 13,4 11,4 16,6 7,3 58 2,8 4580 0,9 2,4 --- ---
18.04.2020 11,4 12,4 15,3 13,9 24,6 5,6 73 1,7 3174 0,4 2,4 --- ---
17.04.2020 10,8 11,9 15,4 13,3 21,5 5,5 60 0,0 4436 0,5 1,6 --- ---
16.04.2020 10,1 10,8 14,6 13,2 24,0 1,0 55 0,0 4423 0,5 1,8 --- ---
15.04.2020 9,6 9,7 10,3 8,1 18,3 -1,0 65 0,0 4329 0,4 1,8 --- ---
14.04.2020 10,0 9,6 7,2 5,2 10,0 0,5 63 0,0 2979 0,7 2,4 --- ---
13.04.2020 10,6 10,5 8,7 7,1 11,3 2,8 63 0,0 3021 1,3 4,0 --- ---
12.04.2020 10,4 11,1 13,6 12,9 23,5 3,4 57 0,0 3198 0,5 2,6 --- ---
11.04.2020 10,2 10,6 12,4 10,6 21,6 0,4 52 0,0 4429 0,4 1,6 --- ---
10.04.2020 10,4 11,1 12,9 10,9 18,2 4,1 59 0,0 4280 0,7 2,9 --- ---
09.04.2020 10,1 11,1 14,4 12,6 20,3 4,2 61 0,0 4070 0,6 2,8 --- ---
08.04.2020 9,6 10,8 15,4 14,5 24,4 5,5 57 0,0 4135 0,5 2,0 --- ---
07.04.2020 8,8 9,9 14,3 13,3 20,7 5,6 65 0,0 3472 0,6 2,3 --- ---
06.04.2020 7,9 8,6 12,9 12,6 22,6 0,8 52 0,0 4224 1,0 3,3 --- ---
05.04.2020 7,2 7,7 11,1 10,1 19,5 0,1 55 0,0 4139 0,7 2,5 --- ---
04.04.2020 6,7 6,9 8,4 6,6 14,7 -1,7 63 0,0 4147 0,5 1,8 --- ---
03.04.2020 6,6 6,5 6,3 6,4 8,3 4,6 75 0,3 736 0,6 2,6 --- ---
02.04.2020 6,1 5,7 6,2 4,6 13,1 -3,8 65 0,0 3165 0,6 2,4 --- ---
01.04.2020 6,0 5,4 5,2 3,0 11,8 -5,5 60 0,0 3980 0,4 2,2 --- ---
31.03.2020 6,3 5,7 4,1 2,5 8,9 -2,6 66 0,0 3171 0,7 2,9 --- ---
30.03.2020 6,3 5,4 2,7 1,5 7,5 -4,9 69 0,0 2496 0,6 2,8 --- ---
29.03.2020 7,0 6,6 3,7 2,9 6,7 -1,3 74 0,0 1609 1,7 4,8 --- ---
28.03.2020 6,7 7,0 10,0 8,4 14,9 2,6 58 0,0 3674 1,0 3,2 --- ---
27.03.2020 5,8 6,0 9,4 9,2 17,5 0,7 51 0,0 3393 1,1 2,7 --- ---
26.03.2020 5,4 4,7 4,9 4,5 10,5 -2,9 51 0,0 3565 1,1 3,3 --- ---
25.03.2020 5,5 4,5 4,1 3,2 11,7 -4,8 45 0,0 3736 0,8 3,1 --- ---
24.03.2020 5,6 4,7 3,8 2,6 9,8 -4,9 43 0,0 3687 0,7 2,5 --- ---
23.03.2020 6,0 4,9 3,4 2,4 8,3 -2,0 39 0,0 3627 0,9 2,3 --- ---
22.03.2020 6,7 5,5 2,9 2,3 6,8 -1,9 50 0,0 3686 1,2 3,3 --- ---
21.03.2020 7,8 7,1 4,4 4,2 7,3 0,8 61 0,0 1741 1,6 3,7 --- ---
20.03.2020 8,4 8,6 7,4 7,3 9,8 4,4 86 0,1 522 1,0 2,6 --- ---
19.03.2020 8,0 8,7 11,2 10,6 15,8 3,7 70 0,0 1890 0,5 1,9 --- ---
18.03.2020 7,6 7,9 10,0 9,4 18,0 1,1 67 0,0 3137 0,8 3,1 --- ---
17.03.2020 7,4 8,0 10,7 10,1 17,4 3,8 66 0,1 2688 0,5 2,6 --- ---
16.03.2020 6,8 7,0 9,6 9,4 17,5 0,3 63 0,0 2787 0,6 2,3 --- ---
15.03.2020 6,7 6,6 8,2 8,2 14,1 3,3 58 0,0 2805 1,2 3,8 --- ---
14.03.2020 6,7 6,5 6,3 5,4 11,4 -0,4 73 0,0 2482 0,5 1,9 --- ---
13.03.2020 7,0 6,7 6,3 5,9 11,3 1,5 69 1,4 2407 1,9 5,5 --- ---
12.03.2020 7,3 7,8 10,3 10,3 13,1 6,6 55 1,6 2580 2,3 6,1 --- ---
11.03.2020 6,7 7,4 9,5 9,8 12,3 7,4 89 4,0 734 0,9 3,2 --- ---
10.03.2020 6,0 6,0 6,7 7,1 13,0 4,1 89 9,2 771 1,9 4,4 --- ---
09.03.2020 5,9 6,2 7,2 7,1 11,7 3,4 74 1,0 1898 0,8 2,7 --- ---
08.03.2020 5,3 5,2 6,9 7,0 10,2 3,0 69 0,0 1247 1,6 3,7 --- ---
07.03.2020 5,3 4,9 3,9 4,4 8,5 2,1 74 1,2 818 0,8 2,7 --- ---
06.03.2020 5,4 5,2 4,3 4,4 6,3 2,9 91 7,8 409 0,9 2,9 --- ---
05.03.2020 5,1 4,9 4,2 4,3 8,4 0,3 83 4,0 820 0,6 2,4 --- ---
04.03.2020 5,3 2,1 2,5 2,7 8,7 -1,6 85 0,4 1325 1,0 4,6 --- ---
03.03.2020 5,9 5,7 4,4 4,3 9,3 -1,1 79 3,4 1277 0,9 5,0 --- ---
02.03.2020 5,6 5,3 6,4 6,1 11,9 2,1 77 3,9 1755 0,8 2,9 --- ---
01.03.2020 5,4 5,2 6,0 6,4 9,9 4,4 68 1,1 1570 1,7 5,0 --- ---
29.02.2020 5,1 2,8 6,9 7,2 12,8 1,9 76 2,9 1447 2,4 5,7 --- ---
28.02.2020 4,9 4,1 3,3 3,2 6,5 0,7 77 3,2 1613 1,5 6,1 --- ---
27.02.2020 5,2 4,3 2,1 2,1 4,6 0,6 86 2,1 865 0,9 2,5 --- ---
26.02.2020 5,7 5,0 2,4 2,6 4,2 1,4 88 3,2 626 1,1 3,0 --- ---
25.02.2020 6,0 6,1 7,7 7,9 10,9 2,8 66 3,3 1789 1,8 5,2 --- ---
24.02.2020 5,9 5,5 5,1 5,5 9,8 2,7 80 1,5 546 1,7 3,9 --- ---
23.02.2020 5,8 6,3 7,7 8,6 12,3 4,6 81 13,9 411 2,0 6,3 --- ---
22.02.2020 5,2 5,1 6,6 7,0 10,9 3,3 70 3,4 934 2,1 5,2 --- ---
21.02.2020 5,2 5,0 5,6 5,7 8,9 3,8 65 1,0 1312 1,7 3,9 --- ---
20.02.2020 5,1 4,7 5,0 5,3 8,5 2,1 82 2,6 592 1,7 4,8 --- ---
19.02.2020 5,4 4,9 3,8 4,5 6,2 0,5 75 2,2 721 1,5 4,0 --- ---
18.02.2020 5,7 5,4 5,3 5,7 8,0 4,5 77 2,3 1293 2,0 4,2 --- ---
17.02.2020 5,9 6,2 7,1 7,8 9,9 5,1 70 1,4 823 2,0 4,4 --- ---
16.02.2020 5,2 5,9 11,3 11,9 15,3 8,9 58 0,2 954 3,5 6,0 --- ---
15.02.2020 4,4 4,4 6,3 6,8 11,1 2,7 76 0,0 1268 1,8 4,5 --- ---
14.02.2020 4,1 4,0 4,6 5,2 7,3 3,0 82 0,6 618 0,7 2,2 --- ---
13.02.2020 3,9 3,0 1,9 2,5 4,8 -0,5 89 2,3 279 1,3 4,2 --- ---
12.02.2020 4,3 3,5 3,3 3,8 7,0 1,0 65 0,1 1311 2,0 4,6 --- ---
11.02.2020 4,8 4,1 3,7 4,3 7,2 2,1 61 1,6 1105 2,7 6,5 --- ---
10.02.2020 5,2 5,4 6,1 6,9 11,4 3,7 73 23,9 865 2,9 6,2 --- ---
09.02.2020 4,3 4,3 7,4 8,1 11,7 3,4 68 0,2 802 3,0 6,8 --- ---
08.02.2020 4,0 3,1 2,6 3,1 6,2 -0,6 75 0,0 795 1,4 3,4 --- ---
07.02.2020 4,4 4,0 3,2 3,5 7,6 -0,4 71 0,0 1119 0,7 2,6 --- ---
06.02.2020 4,4 3,5 2,2 2,5 5,0 -1,1 80 0,0 291 0,4 1,5 --- ---
05.02.2020 5,1 4,1 2,2 2,1 6,3 -2,1 75 0,2 1232 1,0 2,9 --- ---
04.02.2020 5,8 5,3 3,4 3,6 5,7 2,4 85 8,0 720 1,1 3,2 --- ---
03.02.2020 6,0 6,2 8,2 9,1 11,3 5,7 70 3,7 685 1,2 3,3 --- ---
02.02.2020 5,8 6,0 7,3 8,1 11,7 5,4 73 5,7 308 1,4 4,1 --- ---
01.02.2020 5,5 6,3 9,1 10,0 11,4 6,8 81 10,9 215 1,6 4,1 --- ---
31.01.2020 4,5 5,3 10,3 11,2 13,6 7,7 70 0,8 702 1,3 4,5 --- ---
30.01.2020 3,7 3,4 4,9 5,5 8,3 1,6 79 0,1 609 1,7 4,5 --- ---
29.01.2020 3,7 3,1 2,5 3,2 5,2 1,6 75 0,4 355 1,4 3,5 --- ---
28.01.2020 3,9 3,7 3,8 4,6 6,0 2,6 77 4,1 445 2,1 4,8 --- ---
27.01.2020 3,2 3,2 4,8 5,1 7,2 2,8 90 4,4 331 1,8 3,6 --- ---
26.01.2020 2,8 2,1 1,0 0,8 2,9 -0,9 97 0,0 360 1,5 3,1 --- ---
25.01.2020 2,7 1,8 -0,7 -0,9 -0,1 -1,6 92 0,0 256 1,1 2,2 --- ---
24.01.2020 2,9 1,7 -0,9 -0,8 -0,1 -3,8 90 0,0 281 1,3 4,4 --- ---
23.01.2020 3,0 2,2 0,5 0,6 3,4 -3,4 90 0,0 400 0,3 1,2 --- ---
22.01.2020 2,9 1,4 -1,9 -2,1 0,8 -5,5 98 0,0 193 0,1 0,9 --- ---
21.01.2020 3,7 2,1 -2,3 -2,3 3,4 -5,1 93 0,0 733 0,2 1,0 --- ---
20.01.2020 4,4 3,7 1,5 1,8 6,5 -3,4 87 0,1 561 0,2 1,4 --- ---
19.01.2020 4,6 3,9 2,4 2,7 4,2 1,4 92 1,2 357 0,5 1,6 --- ---
18.01.2020 4,7 4,0 2,6 3,4 6,6 0,0 81 0,6 631 0,7 3,5 --- ---
17.01.2020 4,7 4,1 4,0 5,0 9,3 -0,8 86 0,6 653 0,7 3,0 --- ---
16.01.2020 5,3 4,8 3,3 4,7 10,2 -0,1 92 0,0 523 0,2 1,6 --- ---
15.01.2020 5,3 5,5 9,3 10,0 11,8 8,5 59 0,0 752 2,4 4,4 --- ---
14.01.2020 4,8 4,9 7,5 8,1 9,4 5,3 66 0,0 485 2,8 4,9 --- ---
13.01.2020 4,6 4,2 4,7 5,1 7,2 3,9 86 0,0 413 1,5 3,0 --- ---
12.01.2020 4,7 3,7 2,4 2,9 4,6 0,9 83 0,0 278 1,7 3,2 --- ---
11.01.2020 5,4 4,7 3,3 3,9 5,9 1,8 75 0,0 583 1,1 3,4 --- ---
10.01.2020 5,6 6,0 6,7 7,4 9,7 4,2 84 1,6 440 1,2 3,2 --- ---
09.01.2020 4,7 5,3 8,2 8,7 10,2 6,4 95 17,8 95 1,7 3,6 --- ---
08.01.2020 4,0 3,8 4,8 5,2 6,5 3,9 92 1,6 18 1,8 4,1 --- ---
07.01.2020 3,7 3,1 2,6 3,0 5,5 0,4 92 0,0 283 1,3 3,5 --- ---
06.01.2020 3,8 3,3 2,8 3,4 5,2 0,8 78 0,0 250 1,3 3,8 --- ---
05.01.2020 3,6 2,9 1,7 2,1 4,6 -1,1 98 0,4 180 0,5 1,5 --- ---
04.01.2020 3,5 3,2 3,4 4,4 6,4 2,0 83 3,3 208 1,2 4,3 --- ---
03.01.2020 2,7 2,3 3,8 4,2 8,3 1,4 94 2,7 211 1,6 3,6 --- ---
02.01.2020 2,6 1,1 -1,9 -1,3 1,6 -4,7 95 0,0 190 1,3 4,2 --- ---
01.01.2020 3,1 1,8 -1,3 -0,9 2,9 -3,7 91 0,0 539 0,5 1,8 --- ---

Mittelwerte (Temperaturen, Strahlung, rel. Feuchte, Wind), Summe (Regen) für 2020
9,2 9,3 9,5 8,9 70 312 2.452 0,9

Landesbetrieb Landwirtschaft Hessen 2009

      Werte bis 5 Uhr SommerzeitCSV-Datei: Harleshausen20.csvDiagramm: Harleshausen